Time;durP1;ratioP1;P1;durP2;ratioP2;P2;SDS_P1;SDS_P2;PMS_P1;PMS_P2;Temp;Humidity;BMP_temperature;BMP_pressure;BME280_temperature;BME280_humidity;BME280_pressure;Samples;Min_cycle;Max_cycle;Signal;HPM_P1;HPM_P2
2022/05/18 00:01:10;;;;;;;17.17;13.27;;;;;;;11.72;100.00;99062.75;2575403;28;20215;-88
2022/05/18 00:02:26;;;;;;;16.67;12.75;;;;;;;11.69;100.00;99062.84;2576830;28;20069;-82
2022/05/18 00:03:44;;;;;;;18.70;13.35;;;;;;;11.72;100.00;99064.53;2576715;28;20055;-86
2022/05/18 00:05:00;;;;;;;17.48;12.85;;;;;;;11.73;100.00;99069.75;2576500;28;20074;-81
2022/05/18 00:06:15;;;;;;;19.17;13.60;;;;;;;11.71;100.00;99066.28;2576451;28;20476;-86
2022/05/18 00:07:32;;;;;;;17.00;12.95;;;;;;;11.71;100.00;99066.28;2576244;28;20046;-85
2022/05/18 00:08:48;;;;;;;18.48;13.18;;;;;;;11.71;100.00;99074.16;2576484;28;20128;-82
2022/05/18 00:10:04;;;;;;;16.30;12.15;;;;;;;11.74;100.00;99073.22;2576488;28;20452;-85
2022/05/18 00:11:20;;;;;;;18.38;12.85;;;;;;;11.75;100.00;99074.09;2576507;28;20054;-82
2022/05/18 00:12:43;;;;;;;16.38;11.68;;;;;;;11.77;100.00;99080.19;2576521;28;20064;-85
2022/05/18 00:13:59;;;;;;;;;;;;;;;11.78;100.00;99077.50;2577000;28;20057;-82
2022/05/18 00:15:17;;;;;;;14.68;11.02;;;;;;;11.78;100.00;99076.66;2576292;28;19948;-81
2022/05/18 00:16:32;;;;;;;15.18;12.15;;;;;;;11.77;100.00;99074.94;2576167;28;20076;-82
2022/05/18 00:17:48;;;;;;;18.60;12.30;;;;;;;11.72;100.00;99070.63;2576371;28;20058;-82
2022/05/18 00:19:04;;;;;;;16.20;11.65;;;;;;;11.71;100.00;99065.44;2576310;28;20050;-82
2022/05/18 00:20:20;;;;;;;15.85;11.13;;;;;;;11.69;100.00;99073.34;2576112;28;20050;-82
2022/05/18 00:21:37;;;;;;;16.67;12.25;;;;;;;11.65;100.00;99070.81;2576093;28;20066;-85
2022/05/18 00:23:01;;;;;;;16.08;12.18;;;;;;;11.65;100.00;99070.81;2576394;28;20050;-83
2022/05/18 00:24:17;;;;;;;18.88;12.80;;;;;;;11.67;100.00;99066.41;2576390;28;20124;-82
2022/05/18 00:25:39;;;;;;;18.73;13.35;;;;;;;11.69;100.00;99070.72;2576550;28;20054;-84
2022/05/18 00:26:54;;;;;;;19.02;13.52;;;;;;;11.72;100.00;99069.78;2576279;28;20262;-83
2022/05/18 00:28:10;;;;;;;20.52;13.55;;;;;;;11.77;100.00;99070.53;2576111;28;20117;-81
2022/05/18 00:29:26;;;;;;;21.70;13.20;;;;;;;11.79;100.00;99075.75;2576234;28;20047;-83
2022/05/18 00:30:41;;;;;;;17.75;12.85;;;;;;;11.76;100.00;99073.22;2576322;28;20050;-81
2022/05/18 00:31:57;;;;;;;18.75;13.45;;;;;;;11.80;100.00;99075.69;2576116;28;20116;-86
2022/05/18 00:33:13;;;;;;;16.45;12.90;;;;;;;11.83;100.00;99080.03;2576585;28;20050;-84
2022/05/18 00:34:28;;;;;;;17.63;12.80;;;;;;;11.86;100.00;99085.19;2576062;28;20420;-83
2022/05/18 00:35:44;;;;;;;16.67;12.23;;;;;;;11.91;100.00;99085.09;2576113;28;20065;-87
2022/05/18 00:36:59;;;;;;;18.17;12.25;;;;;;;11.91;100.00;99082.47;2576179;28;20086;-85
2022/05/18 00:38:15;;;;;;;18.25;13.20;;;;;;;11.93;100.00;99089.41;2575897;28;20074;-83
2022/05/18 00:39:31;;;;;;;17.25;12.55;;;;;;;11.90;100.00;99088.63;2576261;28;20497;-83
2022/05/18 00:40:48;;;;;;;15.45;11.60;;;;;;;11.92;100.00;99092.06;2575815;28;20425;-83
2022/05/18 00:42:04;;;;;;;16.70;12.25;;;;;;;11.98;100.00;99090.16;2575767;28;20530;-84
2022/05/18 00:43:29;;;;;;;20.10;13.77;;;;;;;11.98;100.00;99094.56;2575979;28;20057;-83
2022/05/18 00:44:44;;;;;;;17.30;12.27;;;;;;;11.89;100.00;99093.03;2576077;28;20056;-84
2022/05/18 00:46:03;;;;;;;19.58;12.00;;;;;;;11.92;100.00;99092.06;2576053;28;20566;-84
2022/05/18 00:47:20;;;;;;;19.42;13.05;;;;;;;11.93;100.00;99089.41;2575627;28;20129;-83
2022/05/18 00:48:37;;;;;;;15.32;11.68;;;;;;;11.91;100.00;99096.47;2576130;28;20061;-85
2022/05/18 00:49:56;;;;;;;21.38;13.35;;;;;;;11.89;100.00;99093.03;2575874;28;20547;-84
2022/05/18 00:51:28;;;;;;;18.95;13.00;;;;;;;11.89;100.00;99095.66;2575982;28;20050;-84
2022/05/18 00:53:01;;;;;;;18.30;12.70;;;;;;;11.86;100.00;99098.31;2575955;28;20077;-83
2022/05/18 00:54:23;;;;;;;17.60;12.98;;;;;;;11.84;100.00;99098.38;2576050;28;20054;-83
2022/05/18 00:55:42;;;;;;;16.45;12.55;;;;;;;11.90;100.00;99096.50;2575713;28;20056;-83
2022/05/18 00:57:07;;;;;;;20.52;12.77;;;;;;;11.91;100.00;99100.84;2575823;28;20101;-83
2022/05/18 00:58:44;;;;;;;18.25;11.95;;;;;;;11.97;100.00;99096.31;2575808;28;20054;-83
2022/05/18 01:00:08;;;;;;;17.25;12.15;;;;;;;11.97;100.00;99091.06;2575833;28;20066;-85
2022/05/18 01:01:25;;;;;;;17.52;11.77;;;;;;;12.17;100.00;99088.91;2576006;28;20453;-83
2022/05/18 01:02:47;;;;;;;16.55;11.13;;;;;;;12.18;100.00;99099.38;2575797;28;20556;-80
2022/05/18 01:04:04;;;;;;;16.77;11.82;;;;;;;11.99;100.00;99104.16;2575752;28;20097;-82
2022/05/18 01:05:25;;;;;;;18.25;12.05;;;;;;;11.96;100.00;99105.09;2575833;28;20061;-82
2022/05/18 01:06:59;;;;;;;16.13;12.50;;;;;;;11.93;100.00;99104.28;2575680;28;20169;-83
2022/05/18 01:08:29;;;;;;;18.73;12.77;;;;;;;11.82;100.00;99105.41;2575747;28;20058;-84
2022/05/18 01:09:49;;;;;;;21.08;12.70;;;;;;;11.83;100.00;99112.38;2575908;28;20046;-82
2022/05/18 01:11:05;;;;;;;17.67;13.13;;;;;;;11.88;100.00;99114.91;2575541;28;20066;-83
2022/05/18 01:12:22;;;;;;;21.75;13.20;;;;;;;11.81;100.00;99118.56;2575965;28;20456;-82
2022/05/18 01:13:38;;;;;;;20.73;13.70;;;;;;;11.69;100.00;99117.91;2575844;28;20104;-83
2022/05/18 01:14:59;;;;;;;16.15;12.48;;;;;;;11.76;100.00;99115.19;2576089;28;20489;-82
2022/05/18 01:16:19;;;;;;;18.65;12.93;;;;;;;11.71;100.00;99115.28;2575759;28;20058;-85
2022/05/18 01:17:38;;;;;;;19.65;12.98;;;;;;;11.65;100.00;99113.66;2575750;28;20073;-85
2022/05/18 01:18:55;;;;;;;17.65;12.55;;;;;;;11.62;100.00;99118.97;2575686;28;20050;-83
2022/05/18 01:20:16;;;;;;;17.42;13.15;;;;;;;11.62;100.00;99112.84;2575340;28;20477;-83
2022/05/18 01:21:47;;;;;;;21.35;13.85;;;;;;;11.61;100.00;99114.63;2575691;28;20061;-85
2022/05/18 01:23:24;;;;;;;18.75;12.77;;;;;;;11.60;100.00;99112.91;2575828;28;20077;-83
2022/05/18 01:24:48;;;;;;;18.95;12.90;;;;;;;11.57;100.00;99116.44;2575328;28;20053;-86
2022/05/18 01:26:16;;;;;;;19.42;13.73;;;;;;;11.68;100.00;99118.81;2575640;28;20509;-83
2022/05/18 01:27:32;;;;;;;18.38;13.07;;;;;;;11.68;100.00;99118.81;2575754;28;20081;-82
2022/05/18 01:28:53;;;;;;;17.80;12.48;;;;;;;11.65;100.00;99121.50;2575132;28;20054;-86
2022/05/18 01:30:10;;;;;;;17.75;12.68;;;;;;;11.73;100.00;99124.84;2575829;28;20057;-83
2022/05/18 01:32:02;;;;;;;18.23;12.20;;;;;;;11.73;100.00;99124.84;2575338;28;20566;-82
2022/05/18 01:33:21;;;;;;;19.02;12.82;;;;;;;11.66;100.00;99120.63;2575668;28;20544;-83
2022/05/18 01:34:41;;;;;;;18.83;13.23;;;;;;;11.58;100.00;99127.78;2575580;28;20085;-83
2022/05/18 01:35:57;;;;;;;18.88;13.23;;;;;;;11.54;100.00;99127.00;2575739;28;20046;-86
2022/05/18 01:37:14;;;;;;;17.85;13.43;;;;;;;11.54;100.00;99126.13;2575762;28;20054;-87
2022/05/18 01:38:32;;;;;;;20.65;13.25;;;;;;;11.54;100.00;99131.38;2564535;28;20063;-83
2022/05/18 01:39:52;;;;;;;19.73;13.35;;;;;;;11.49;100.00;99128.00;2568907;28;20061;-83
2022/05/18 01:41:12;;;;;;;18.77;12.82;;;;;;;11.47;100.00;99129.78;2575450;28;20058;-82
2022/05/18 01:42:36;;;;;;;18.48;13.13;;;;;;;11.44;100.00;99128.91;2575617;28;20084;-83
2022/05/18 01:43:56;;;;;;;19.17;13.35;;;;;;;11.43;100.00;99134.22;2575399;28;20073;-84
2022/05/18 01:45:13;;;;;;;18.13;12.45;;;;;;;11.41;100.00;99136.84;2575478;28;20048;-82
2022/05/18 01:46:32;;;;;;;16.98;11.85;;;;;;;11.40;100.00;99140.38;2575491;28;20899;-84
2022/05/18 01:47:50;;;;;;;18.23;12.00;;;;;;;11.36;100.00;99136.09;2575274;28;20062;-83
2022/05/18 01:49:06;;;;;;;18.90;12.82;;;;;;;11.32;100.00;99138.81;2575186;28;20061;-86
2022/05/18 01:50:27;;;;;;;19.90;12.85;;;;;;;11.29;100.00;99137.09;2575520;28;20050;-86
2022/05/18 01:51:47;;;;;;;17.33;12.68;;;;;;;11.26;100.00;99135.44;2575704;28;20050;-83
2022/05/18 01:53:03;;;;;;;18.08;12.23;;;;;;;11.24;100.00;99139.81;2575771;28;20046;-82
2022/05/18 01:54:19;;;;;;;21.30;13.05;;;;;;;11.23;100.00;99143.31;2575570;28;20078;-85
2022/05/18 01:55:35;;;;;;;16.10;12.35;;;;;;;11.22;100.00;99148.63;2575435;28;20050;-87
2022/05/18 01:56:50;;;;;;;18.65;12.00;;;;;;;11.17;100.00;99143.47;2575104;28;20054;-83
2022/05/18 01:58:09;;;;;;;18.25;12.73;;;;;;;11.15;100.00;99142.63;2575326;28;20058;-86
2022/05/18 01:59:25;;;;;;;18.00;12.82;;;;;;;11.17;100.00;99140.84;2564552;28;20055;-84
2022/05/18 02:00:41;;;;;;;21.80;14.13;;;;;;;11.16;100.00;99145.19;2568928;28;20421;-84
2022/05/18 02:01:58;;;;;;;19.10;13.20;;;;;;;11.18;100.00;99141.72;2575737;28;20062;-83
2022/05/18 02:03:14;;;;;;;20.02;13.82;;;;;;;11.22;100.00;99146.00;2575571;28;20058;-83
2022/05/18 02:04:33;;;;;;;18.77;13.10;;;;;;;11.23;100.00;99145.94;2575667;28;20097;-84
2022/05/18 02:05:51;;;;;;;20.00;12.45;;;;;;;11.22;100.00;99146.84;2575598;28;20146;-83
2022/05/18 02:07:07;;;;;;;20.88;12.98;;;;;;;11.21;100.00;99146.88;2575069;28;20077;-84
2022/05/18 02:08:22;;;;;;;19.00;13.10;;;;;;;11.21;100.00;99149.50;2575707;28;20050;-83
2022/05/18 02:09:38;;;;;;;21.98;12.85;;;;;;;11.22;100.00;99148.63;2575425;28;20058;-83
2022/05/18 02:10:54;;;;;;;17.75;12.43;;;;;;;11.22;100.00;99157.31;2575728;28;20046;-83
2022/05/18 02:12:10;;;;;;;17.20;12.43;;;;;;;11.22;100.00;99157.31;2575071;28;20050;-87
2022/05/18 02:13:25;;;;;;;19.90;12.10;;;;;;;11.19;100.00;99156.53;2575204;28;20069;-84
2022/05/18 02:14:41;;;;;;;15.63;12.02;;;;;;;11.17;100.00;99151.31;2575354;28;20054;-85
2022/05/18 02:15:57;;;;;;;15.90;10.70;;;;;;;11.12;100.00;99153.16;2575486;28;20053;-84
2022/05/18 02:17:12;;;;;;;15.20;11.13;;;;;;;11.05;100.00;99159.41;2575564;28;20523;-83
2022/05/18 02:18:28;;;;;;;15.30;10.88;;;;;;;10.97;100.00;99157.81;2575591;28;20104;-83
2022/05/18 02:19:44;;;;;;;16.85;11.88;;;;;;;10.89;100.00;99157.06;2575339;28;20051;-82
2022/05/18 02:21:08;;;;;;;18.15;11.55;;;;;;;10.84;100.00;99162.38;2575280;28;20456;-82
2022/05/18 02:22:25;;;;;;;16.70;11.55;;;;;;;10.80;100.00;99160.72;2575275;28;20134;-83
2022/05/18 02:23:41;;;;;;;16.92;12.32;;;;;;;10.67;100.00;99159.19;2575715;28;20565;-83
2022/05/18 02:24:56;;;;;;;15.95;12.10;;;;;;;10.65;100.00;99159.22;2575407;28;20113;-84
2022/05/18 02:26:15;;;;;;;18.80;12.23;;;;;;;10.70;100.00;99160.00;2575448;28;20081;-83
2022/05/18 02:27:30;;;;;;;21.58;12.80;;;;;;;10.72;100.00;99159.97;2575185;28;20065;-83
2022/05/18 02:28:46;;;;;;;16.27;11.73;;;;;;;10.71;100.00;99160.84;2575047;28;20133;-84
2022/05/18 02:30:03;;;;;;;15.88;11.93;;;;;;;10.71;100.00;99155.63;2575476;28;20054;-83
2022/05/18 02:31:19;;;;;;;18.95;12.05;;;;;;;10.66;100.00;99154.84;2575380;28;20050;-83
2022/05/18 02:32:35;;;;;;;17.48;12.07;;;;;;;10.64;100.00;99159.25;2577308;28;20065;-85
2022/05/18 02:33:50;;;;;;;17.58;11.63;;;;;;;10.63;100.00;99155.75;2577370;28;20050;-83
2022/05/18 02:35:07;;;;;;;18.17;12.10;;;;;;;10.56;100.00;99164.63;2577338;28;20137;-83
2022/05/18 02:36:22;;;;;;;18.33;12.75;;;;;;;10.55;100.00;99168.97;2577289;28;20047;-82
2022/05/18 02:37:38;;;;;;;18.70;11.75;;;;;;;10.49;100.00;99166.47;2576892;28;20424;-83
2022/05/18 02:38:54;;;;;;;17.85;12.57;;;;;;;10.47;100.00;99170.84;2577686;28;20693;-83
2022/05/18 02:40:11;;;;;;;17.42;12.63;;;;;;;10.47;100.00;99170.00;2576987;28;20085;-82
2022/05/18 02:41:26;;;;;;;17.92;12.50;;;;;;;10.49;100.00;99162.97;2577237;28;20070;-82
2022/05/18 02:42:42;;;;;;;19.25;13.05;;;;;;;10.50;100.00;99162.97;2577315;28;20443;-83
2022/05/18 02:43:59;;;;;;;20.90;13.13;;;;;;;10.54;100.00;99169.88;2577489;28;20050;-85
2022/05/18 02:45:15;;;;;;;24.35;14.75;;;;;;;10.58;100.00;99166.31;2577068;28;20512;-83
2022/05/18 02:46:30;;;;;;;39.42;14.95;;;;;;;10.69;100.00;99165.25;2577133;28;20042;-82
2022/05/18 02:47:46;;;;;;;75.60;16.70;;;;;;;10.86;100.00;99164.97;2577023;28;20081;-83
2022/05/18 02:49:01;;;;;;;67.47;16.27;;;;;;;10.94;100.00;99168.31;2577155;28;20061;-83
2022/05/18 02:50:17;;;;;;;23.98;14.02;;;;;;;11.02;100.00;99178.66;2577133;28;20363;-87
2022/05/18 02:51:33;;;;;;;71.90;16.30;;;;;;;11.05;100.00;99173.38;2577303;28;20055;-84
2022/05/18 02:52:49;;;;;;;31.10;14.30;;;;;;;11.02;100.00;99174.28;2576913;28;20065;-85
2022/05/18 02:56:05;;;;;;;19.40;13.27;;;;;;;11.02;100.00;99168.19;2577414;28;20054;-84
2022/05/18 02:57:15;;;;;;;20.15;12.90;;;;;;;10.95;100.00;99167.41;2577108;28;20065;-83
2022/05/18 02:58:31;;;;;;;22.80;13.45;;;;;;;10.95;100.00;99167.41;2577120;28;20038;-83
2022/05/18 02:59:47;;;;;;;20.45;13.60;;;;;;;10.94;100.00;99164.84;2577239;28;20054;-83
2022/05/18 03:01:05;;;;;;;21.15;14.18;;;;;;;10.96;100.00;99170.91;2576308;28;20086;-83
2022/05/18 03:02:20;;;;;;;21.48;14.35;;;;;;;10.97;100.00;99175.25;2577174;28;20050;-87
2022/05/18 03:03:36;;;;;;;22.88;14.95;;;;;;;10.99;100.00;99171.75;2577071;28;20097;-85
2022/05/18 03:04:52;;;;;;;22.48;14.18;;;;;;;11.02;100.00;99171.69;2565900;28;20706;-82
2022/05/18 03:06:11;;;;;;;22.45;13.27;;;;;;;11.08;100.00;99170.69;2570089;28;20054;-84
2022/05/18 03:07:26;;;;;;;21.60;13.95;;;;;;;11.16;100.00;99167.94;2576909;28;20050;-83
2022/05/18 03:08:44;;;;;;;19.20;13.05;;;;;;;11.24;100.00;99160.78;2577354;28;20050;-84
2022/05/18 03:09:59;;;;;;;16.20;12.07;;;;;;;11.25;100.00;99164.28;2577331;28;20053;-82
2022/05/18 03:11:15;;;;;;;19.13;12.73;;;;;;;11.22;100.00;99161.72;2576202;28;20222;-86
2022/05/18 03:12:31;;;;;;;18.70;12.63;;;;;;;11.21;100.00;99166.09;2577037;28;20053;-81
2022/05/18 03:13:47;;;;;;;19.80;13.18;;;;;;;11.16;100.00;99173.19;2577383;28;20053;-81
2022/05/18 03:15:03;;;;;;;17.23;11.90;;;;;;;11.11;100.00;99177.66;2576964;28;20043;-81
2022/05/18 03:16:18;;;;;;;20.05;12.80;;;;;;;11.06;100.00;99184.72;2576933;28;20058;-83
2022/05/18 03:17:34;;;;;;;19.65;13.05;;;;;;;11.01;100.00;99182.16;2576639;28;20050;-82
2022/05/18 03:18:50;;;;;;;18.23;12.45;;;;;;;10.97;100.00;99186.63;2577007;28;20100;-81
2022/05/18 03:20:07;;;;;;;19.75;13.63;;;;;;;10.95;100.00;99191.00;2565965;28;20058;-83
2022/05/18 03:24:31;;;;;;;22.90;13.88;;;;;;;10.94;100.00;99198.91;2577026;28;20053;-83
2022/05/18 03:25:47;;;;;;;22.85;13.98;;;;;;;10.88;100.00;99198.09;2576918;28;20070;-83
2022/05/18 03:27:04;;;;;;;20.50;13.50;;;;;;;10.94;100.00;99198.91;2576904;28;20137;-83
2022/05/18 03:28:20;;;;;;;22.65;14.63;;;;;;;10.92;100.00;99205.94;2576582;28;20069;-85
2022/05/18 03:29:35;;;;;;;20.95;14.40;;;;;;;10.86;100.00;99207.75;2576778;28;20405;-81
2022/05/18 03:30:50;;;;;;;22.90;13.77;;;;;;;10.94;100.00;99215.47;2576874;28;20074;-81
2022/05/18 03:32:07;;;;;;;52.63;13.60;;;;;;;11.06;100.00;99209.19;2576700;28;20061;-83
2022/05/18 03:33:23;;;;;;;71.78;14.88;;;;;;;11.06;100.00;99208.31;2576671;28;20509;-83
2022/05/18 03:34:39;;;;;;;80.75;13.57;;;;;;;11.11;100.00;99201.25;2577038;28;20556;-84
2022/05/18 03:35:55;;;;;;;40.85;14.02;;;;;;;11.10;100.00;99210.84;2576735;28;20449;-88
2022/05/18 03:37:11;;;;;;;277.27;19.80;;;;;;;11.12;100.00;99216.91;2575269;28;20050;-83
2022/05/18 03:38:26;;;;;;;248.60;20.10;;;;;;;11.15;100.00;99205.53;2576764;28;20046;-85
2022/05/18 03:39:42;;;;;;;269.80;19.35;;;;;;;11.11;100.00;99217.81;2576746;28;20057;-83
2022/05/18 03:40:58;;;;;;;121.20;15.63;;;;;;;11.14;100.00;99216.91;2576603;28;20046;-81
2022/05/18 03:42:14;;;;;;;102.03;15.15;;;;;;;11.12;100.00;99214.28;2565351;28;20398;-82
2022/05/18 03:43:29;;;;;;;204.20;17.92;;;;;;;11.14;100.00;99222.16;2569827;28;20142;-82
2022/05/18 03:44:45;;;;;;;25.80;13.23;;;;;;;11.12;100.00;99216.06;2576469;28;20785;-85
2022/05/18 03:46:01;;;;;;;55.75;14.30;;;;;;;11.07;100.00;99218.75;2576789;28;20057;-84
2022/05/18 03:47:17;;;;;;;41.28;13.73;;;;;;;11.11;100.00;99217.81;2576333;28;20082;-83
2022/05/18 03:48:33;;;;;;;44.22;13.13;;;;;;;11.08;100.00;99222.22;2576646;28;20782;-84
2022/05/18 03:49:48;;;;;;;45.10;13.80;;;;;;;11.07;100.00;99228.38;2576496;28;20132;-79
2022/05/18 03:51:05;;;;;;;20.23;12.98;;;;;;;11.05;100.00;99225.78;2576289;28;20050;-83
2022/05/18 03:52:21;;;;;;;20.58;13.90;;;;;;;10.99;100.00;99228.50;2576866;28;20490;-80
2022/05/18 03:53:37;;;;;;;23.25;14.50;;;;;;;11.02;100.00;99226.69;2576653;28;20414;-81
2022/05/18 03:54:53;;;;;;;20.25;14.02;;;;;;;11.05;100.00;99233.66;2576016;28;20521;-80
2022/05/18 03:56:10;;;;;;;18.48;13.00;;;;;;;11.02;100.00;99229.31;2576702;28;20065;-85
2022/05/18 03:57:26;;;;;;;19.55;13.43;;;;;;;11.04;100.00;99225.81;2576527;28;20061;-83
2022/05/18 03:58:42;;;;;;;19.08;13.38;;;;;;;11.06;100.00;99227.53;2576315;28;20051;-83
2022/05/18 03:59:57;;;;;;;22.10;14.30;;;;;;;11.07;100.00;99233.59;2575974;28;20054;-83
2022/05/18 04:01:13;;;;;;;22.75;13.98;;;;;;;11.05;100.00;99230.16;2576235;28;20054;-86
2022/05/18 04:02:29;;;;;;;22.58;14.57;;;;;;;11.01;100.00;99239.81;2575543;28;20050;-87
2022/05/18 04:03:46;;;;;;;43.80;15.73;;;;;;;11.03;100.00;99235.41;2575915;28;20047;-87
2022/05/18 04:05:01;;;;;;;60.92;15.73;;;;;;;11.06;100.00;99235.38;2575869;28;20062;-86
2022/05/18 04:06:17;;;;;;;96.55;15.02;;;;;;;11.16;100.00;99238.69;2576244;28;20053;-86
2022/05/18 04:07:33;;;;;;;116.82;14.57;;;;;;;11.10;100.00;99226.56;2576083;28;20507;-83
2022/05/18 04:08:49;;;;;;;184.63;16.27;;;;;;;11.18;100.00;99233.44;2576138;28;20053;-82
2022/05/18 04:10:06;;;;;;;113.00;14.50;;;;;;;11.08;100.00;99237.97;2576451;28;20046;-84
2022/05/18 04:11:21;;;;;;;142.52;15.40;;;;;;;11.15;100.00;99237.81;2576473;28;20056;-85
2022/05/18 04:12:38;;;;;;;106.38;16.50;;;;;;;11.08;100.00;99240.56;2576116;28;20093;-87
2022/05/18 04:13:55;;;;;;;229.00;17.75;;;;;;;11.19;100.00;99243.03;2576457;28;20054;-84
2022/05/18 04:15:16;;;;;;;155.07;16.00;;;;;;;11.30;100.00;99246.31;2576631;28;20093;-85
2022/05/18 04:16:31;;;;;;;218.35;16.23;;;;;;;11.16;100.00;99243.94;2576522;28;20052;-84
2022/05/18 04:17:48;;;;;;;230.45;18.60;;;;;;;11.21;100.00;99247.34;2576233;28;20058;-82
2022/05/18 04:19:04;;;;;;;90.82;16.90;;;;;;;11.17;100.00;99248.28;2576248;28;20421;-86
2022/05/18 04:20:21;;;;;;;147.75;15.82;;;;;;;11.17;100.00;99243.06;2576219;28;20175;-86
2022/05/18 04:21:37;;;;;;;233.23;18.13;;;;;;;11.14;100.00;99249.19;2576400;28;20058;-86
2022/05/18 04:22:53;;;;;;;339.52;20.42;;;;;;;11.16;100.00;99251.81;2576244;28;20078;-86
2022/05/18 04:24:09;;;;;;;343.80;24.27;;;;;;;11.19;100.00;99249.13;2576306;28;20390;-86
2022/05/18 04:25:26;;;;;;;369.98;25.75;;;;;;;11.16;100.00;99247.41;2576118;28;20043;-87
2022/05/18 04:26:42;;;;;;;271.77;20.65;;;;;;;11.08;100.00;99249.31;2576202;28;20050;-88
2022/05/18 04:27:58;;;;;;;234.32;18.00;;;;;;;11.01;100.00;99252.91;2575938;28;20089;-84
2022/05/18 04:29:13;;;;;;;90.20;16.42;;;;;;;11.05;100.00;99252.00;2576489;28;20051;-83
2022/05/18 04:30:30;;;;;;;198.27;17.30;;;;;;;11.12;100.00;99251.00;2576421;28;20038;-83
2022/05/18 04:31:45;;;;;;;112.55;15.77;;;;;;;11.11;100.00;99259.75;2576063;28;20524;-84
2022/05/18 04:33:01;;;;;;;292.65;22.50;;;;;;;11.16;100.00;99255.28;2575742;28;20104;-86
2022/05/18 04:34:17;;;;;;;334.98;22.02;;;;;;;11.16;100.00;99251.81;2576162;28;20046;-85
2022/05/18 04:35:33;;;;;;;58.20;15.13;;;;;;;11.16;100.00;99257.06;2576247;28;20085;-84
2022/05/18 04:36:48;;;;;;;171.95;17.88;;;;;;;11.15;100.00;99256.16;2576209;28;20405;-84
2022/05/18 04:38:05;;;;;;;85.80;15.20;;;;;;;11.10;100.00;99265.00;2576137;28;20054;-84
2022/05/18 04:39:20;;;;;;;54.13;14.00;;;;;;;11.05;100.00;99262.47;2576309;28;20057;-85
2022/05/18 04:40:36;;;;;;;108.93;16.85;;;;;;;11.00;100.00;99267.78;2576135;28;20489;-87
2022/05/18 04:41:52;;;;;;;116.07;17.38;;;;;;;11.03;100.00;99266.84;2576072;28;20054;-84
2022/05/18 04:43:08;;;;;;;74.72;15.63;;;;;;;11.05;100.00;99275.59;2565372;28;20090;-85
2022/05/18 04:44:25;;;;;;;238.10;20.10;;;;;;;11.09;100.00;99276.38;2569516;28;20281;-87
2022/05/18 04:45:51;;;;;;;153.93;17.35;;;;;;;11.15;100.00;99271.91;2576158;28;20058;-84
2022/05/18 04:47:06;;;;;;;231.90;19.23;;;;;;;11.13;100.00;99276.31;2576030;28;20755;-84
2022/05/18 04:48:24;;;;;;;158.98;17.45;;;;;;;11.10;100.00;99278.97;2575691;28;20085;-83
2022/05/18 04:49:40;;;;;;;213.40;19.35;;;;;;;11.16;100.00;99283.25;2575959;28;20089;-88
2022/05/18 04:50:55;;;;;;;289.40;21.25;;;;;;;11.21;100.00;99280.56;2576052;28;20642;-86
2022/05/18 04:52:11;;;;;;;168.85;17.15;;;;;;;11.27;100.00;99283.06;2576162;28;20054;-84
2022/05/18 04:53:27;;;;;;;162.10;18.42;;;;;;;11.25;100.00;99280.50;2574728;28;20066;-83
2022/05/18 04:54:42;;;;;;;106.75;16.20;;;;;;;11.34;100.00;99282.09;2574989;28;20046;-84
2022/05/18 04:55:58;;;;;;;85.35;15.30;;;;;;;11.41;100.00;99281.06;2575696;28;20046;-84
2022/05/18 04:57:14;;;;;;;119.63;16.52;;;;;;;11.40;100.00;99281.97;2564814;28;20141;-84
2022/05/18 04:58:30;;;;;;;85.93;14.20;;;;;;;11.43;100.00;99276.66;2569425;28;20054;-85
2022/05/18 04:59:47;;;;;;;70.35;14.60;;;;;;;11.42;100.00;99285.41;2575737;28;20488;-85
2022/05/18 05:01:06;;;;;;;77.22;15.35;;;;;;;11.39;100.00;99290.72;2575749;28;20046;-84
2022/05/18 05:02:22;;;;;;;59.28;14.23;;;;;;;11.37;100.00;99286.38;2575598;28;20050;-86
2022/05/18 05:03:38;;;;;;;39.55;14.23;;;;;;;11.36;100.00;99288.16;2575783;28;20053;-87
2022/05/18 05:04:54;;;;;;;131.40;17.15;;;;;;;11.47;100.00;99289.72;2575880;28;20050;-85
2022/05/18 05:06:09;;;;;;;92.40;16.60;;;;;;;11.47;100.00;99287.97;2575750;28;20453;-85
2022/05/18 05:07:25;;;;;;;32.28;13.27;;;;;;;11.55;100.00;99290.44;2575873;28;20232;-84
2022/05/18 05:08:41;;;;;;;28.58;13.30;;;;;;;11.64;100.00;99290.28;2575744;28;20081;-85
2022/05/18 05:09:56;;;;;;;34.13;13.68;;;;;;;11.55;100.00;99296.56;2575790;28;20401;-85
2022/05/18 05:11:12;;;;;;;49.78;14.10;;;;;;;11.68;100.00;99297.19;2575758;28;20133;-84
2022/05/18 05:12:27;;;;;;;44.60;14.13;;;;;;;11.79;100.00;99293.50;2575657;28;20057;-84
2022/05/18 05:13:43;;;;;;;44.55;14.00;;;;;;;11.87;100.00;99297.72;2575321;28;20062;-85
2022/05/18 05:14:59;;;;;;;30.60;13.23;;;;;;;11.83;100.00;99293.41;2575542;28;20540;-84
2022/05/18 05:16:14;;;;;;;24.50;13.07;;;;;;;11.96;100.00;99295.81;2575262;28;20042;-82
2022/05/18 05:17:30;;;;;;;20.27;12.88;;;;;;;11.96;100.00;99298.44;2575563;28;20404;-84
2022/05/18 05:18:46;;;;;;;25.20;12.38;;;;;;;11.96;100.00;99294.03;2575718;28;20059;-84
2022/05/18 05:20:02;;;;;;;18.65;12.88;;;;;;;12.04;100.00;99304.41;2575159;28;20046;-87
2022/05/18 05:21:17;;;;;;;19.55;12.68;;;;;;;12.11;100.00;99305.16;2575454;28;20185;-86
2022/05/18 05:22:33;;;;;;;33.00;13.93;;;;;;;12.15;100.00;99301.56;2574935;28;20054;-86
2022/05/18 05:23:48;;;;;;;26.35;13.18;;;;;;;12.28;100.00;99305.66;2575496;28;20061;-87
2022/05/18 05:25:04;;;;;;;25.88;13.52;;;;;;;12.26;100.00;99311.84;2575654;28;20046;-86
2022/05/18 05:26:20;;;;;;;25.58;13.00;;;;;;;12.29;100.00;99312.66;2575751;28;20050;-84
2022/05/18 05:27:35;;;;;;;20.00;12.77;;;;;;;12.25;100.00;99316.22;2575398;28;20141;-84
2022/05/18 05:28:51;;;;;;;16.13;12.32;;;;;;;12.36;100.00;99315.16;2575588;28;20049;-85
2022/05/18 05:30:08;;;;;;;19.70;13.57;;;;;;;12.41;100.00;99313.28;2575497;28;20046;-85
2022/05/18 05:31:24;;;;;;;20.65;12.63;;;;;;;12.34;100.00;99315.16;2575474;28;20060;-85
2022/05/18 05:32:40;;;;;;;20.33;11.90;;;;;;;12.29;100.00;99314.41;2575167;28;20054;-84
2022/05/18 05:33:57;;;;;;;39.00;13.32;;;;;;;12.36;100.00;99315.16;2575608;28;20576;-84
2022/05/18 05:35:13;;;;;;;22.42;12.10;;;;;;;12.46;100.00;99316.69;2575231;28;20077;-86
2022/05/18 05:36:30;;;;;;;20.05;12.40;;;;;;;12.46;100.00;99315.81;2574733;28;20045;-86
2022/05/18 05:37:45;;;;;;;23.52;12.80;;;;;;;12.50;100.00;99312.22;2574715;28;20375;-87
2022/05/18 05:39:02;;;;;;;20.63;13.20;;;;;;;12.45;100.00;99314.97;2574631;28;20049;-86
2022/05/18 05:40:17;;;;;;;20.88;13.63;;;;;;;12.52;100.00;99313.91;2575241;28;20497;-88
2022/05/18 05:41:33;;;;;;;17.60;12.82;;;;;;;12.60;100.00;99316.38;2574884;28;20165;-86
2022/05/18 05:42:49;;;;;;;21.45;13.95;;;;;;;12.67;100.00;99311.84;2575205;28;20057;-82
2022/05/18 05:44:05;;;;;;;21.33;13.50;;;;;;;12.71;100.00;99308.25;2575235;28;20061;-83
2022/05/18 05:45:20;;;;;;;23.45;13.57;;;;;;;12.62;100.00;99311.94;2575517;28;20060;-90
2022/05/18 05:46:36;;;;;;;21.98;13.25;;;;;;;12.67;100.00;99312.72;2575741;28;20142;-83
2022/05/18 05:47:51;;;;;;;22.05;14.85;;;;;;;12.71;100.00;99309.13;2575371;28;20563;-82
2022/05/18 05:49:07;;;;;;;23.25;14.50;;;;;;;12.64;100.00;99307.53;2575245;28;20507;-82
2022/05/18 05:50:23;;;;;;;19.65;13.52;;;;;;;12.72;100.00;99312.63;2574814;28;20050;-85
2022/05/18 05:51:39;;;;;;;20.38;13.88;;;;;;;12.77;100.00;99313.38;2574893;28;20532;-82
2022/05/18 05:52:55;;;;;;;24.85;14.55;;;;;;;12.89;100.00;99311.38;2564230;28;20462;-82
2022/05/18 05:54:11;;;;;;;23.05;14.52;;;;;;;12.98;100.00;99314.63;2568676;28;20058;-87
2022/05/18 05:55:28;;;;;;;22.08;13.85;;;;;;;12.93;100.00;99315.63;2575290;28;20065;-85
2022/05/18 05:56:43;;;;;;;24.10;13.82;;;;;;;12.94;100.00;99318.25;2575415;28;20053;-85